sensor_id;sensor_type;location;lat;lon;timestamp;temperature;humidity
5899;DHT22;2975;50.956;6.962;2022-07-06T00:01:15;15.40;96.30
5899;DHT22;2975;50.956;6.962;2022-07-06T00:03:41;15.30;95.90
5899;DHT22;2975;50.956;6.962;2022-07-06T00:06:07;15.20;95.90
5899;DHT22;2975;50.956;6.962;2022-07-06T00:08:33;15.20;95.90
5899;DHT22;2975;50.956;6.962;2022-07-06T00:10:59;15.10;96.10
5899;DHT22;2975;50.956;6.962;2022-07-06T00:13:26;15.10;96.20
5899;DHT22;2975;50.956;6.962;2022-07-06T00:15:51;15.00;96.30
5899;DHT22;2975;50.956;6.962;2022-07-06T00:18:17;15.00;96.40
5899;DHT22;2975;50.956;6.962;2022-07-06T00:20:42;14.90;96.60
5899;DHT22;2975;50.956;6.962;2022-07-06T00:23:08;14.90;96.90
5899;DHT22;2975;50.956;6.962;2022-07-06T00:25:34;14.80;96.80
5899;DHT22;2975;50.956;6.962;2022-07-06T00:27:59;14.80;97.20
5899;DHT22;2975;50.956;6.962;2022-07-06T00:30:25;14.70;97.40
5899;DHT22;2975;50.956;6.962;2022-07-06T00:32:51;14.60;97.40
5899;DHT22;2975;50.956;6.962;2022-07-06T00:35:16;14.60;97.60
5899;DHT22;2975;50.956;6.962;2022-07-06T00:37:42;14.50;97.50
5899;DHT22;2975;50.956;6.962;2022-07-06T00:40:08;14.40;97.50
5899;DHT22;2975;50.956;6.962;2022-07-06T00:42:44;14.40;98.10
5899;DHT22;2975;50.956;6.962;2022-07-06T00:45:11;14.30;97.90
5899;DHT22;2975;50.956;6.962;2022-07-06T00:47:38;14.30;98.00
5899;DHT22;2975;50.956;6.962;2022-07-06T00:50:05;14.30;98.00
5899;DHT22;2975;50.956;6.962;2022-07-06T00:52:45;14.30;98.20
5899;DHT22;2975;50.956;6.962;2022-07-06T00:55:12;14.20;98.30
5899;DHT22;2975;50.956;6.962;2022-07-06T00:57:38;14.20;98.40
5899;DHT22;2975;50.956;6.962;2022-07-06T01:00:07;14.20;98.40
5899;DHT22;2975;50.956;6.962;2022-07-06T01:02:34;14.10;98.50
5899;DHT22;2975;50.956;6.962;2022-07-06T01:05:01;14.10;98.50
5899;DHT22;2975;50.956;6.962;2022-07-06T01:07:27;14.00;99.40
5899;DHT22;2975;50.956;6.962;2022-07-06T01:09:53;14.00;99.30
5899;DHT22;2975;50.956;6.962;2022-07-06T01:12:19;14.00;99.50
5899;DHT22;2975;50.956;6.962;2022-07-06T01:14:45;14.00;99.70
5899;DHT22;2975;50.956;6.962;2022-07-06T01:17:14;14.00;99.60
5899;DHT22;2975;50.956;6.962;2022-07-06T01:19:40;14.00;99.50
5899;DHT22;2975;50.956;6.962;2022-07-06T01:22:06;14.00;99.60
5899;DHT22;2975;50.956;6.962;2022-07-06T01:24:35;13.90;99.60
5899;DHT22;2975;50.956;6.962;2022-07-06T01:27:01;13.90;99.70
5899;DHT22;2975;50.956;6.962;2022-07-06T01:29:27;13.90;99.90
5899;DHT22;2975;50.956;6.962;2022-07-06T01:31:52;13.80;99.90
5899;DHT22;2975;50.956;6.962;2022-07-06T01:34:18;13.70;99.90
5899;DHT22;2975;50.956;6.962;2022-07-06T01:36:44;13.70;99.90
5899;DHT22;2975;50.956;6.962;2022-07-06T01:39:10;13.70;99.90
5899;DHT22;2975;50.956;6.962;2022-07-06T01:41:37;13.70;99.90
5899;DHT22;2975;50.956;6.962;2022-07-06T01:44:04;13.60;99.90
5899;DHT22;2975;50.956;6.962;2022-07-06T01:46:30;13.60;99.90
5899;DHT22;2975;50.956;6.962;2022-07-06T01:48:55;13.50;99.90
5899;DHT22;2975;50.956;6.962;2022-07-06T01:51:21;13.50;99.90
5899;DHT22;2975;50.956;6.962;2022-07-06T01:53:48;13.40;99.90
5899;DHT22;2975;50.956;6.962;2022-07-06T01:56:14;13.30;99.90
5899;DHT22;2975;50.956;6.962;2022-07-06T01:58:40;13.30;99.90
5899;DHT22;2975;50.956;6.962;2022-07-06T02:01:11;13.30;99.90
5899;DHT22;2975;50.956;6.962;2022-07-06T02:03:37;13.30;99.90
5899;DHT22;2975;50.956;6.962;2022-07-06T02:06:03;13.30;99.90
5899;DHT22;2975;50.956;6.962;2022-07-06T02:08:29;13.20;99.90
5899;DHT22;2975;50.956;6.962;2022-07-06T02:10:55;13.20;99.90
5899;DHT22;2975;50.956;6.962;2022-07-06T02:13:21;13.20;99.90
5899;DHT22;2975;50.956;6.962;2022-07-06T02:15:46;13.20;99.90
5899;DHT22;2975;50.956;6.962;2022-07-06T02:18:12;13.20;99.90
5899;DHT22;2975;50.956;6.962;2022-07-06T02:20:38;13.20;99.90
5899;DHT22;2975;50.956;6.962;2022-07-06T02:23:03;13.10;99.90
5899;DHT22;2975;50.956;6.962;2022-07-06T02:27:55;13.00;99.90
5899;DHT22;2975;50.956;6.962;2022-07-06T02:30:21;13.00;99.90
5899;DHT22;2975;50.956;6.962;2022-07-06T02:32:47;13.00;99.90
5899;DHT22;2975;50.956;6.962;2022-07-06T02:35:13;13.00;99.90
5899;DHT22;2975;50.956;6.962;2022-07-06T02:37:38;12.90;99.90
5899;DHT22;2975;50.956;6.962;2022-07-06T02:40:05;12.90;99.90
5899;DHT22;2975;50.956;6.962;2022-07-06T02:42:31;12.90;99.90
5899;DHT22;2975;50.956;6.962;2022-07-06T02:44:56;12.80;99.90
5899;DHT22;2975;50.956;6.962;2022-07-06T02:47:22;12.80;99.90
5899;DHT22;2975;50.956;6.962;2022-07-06T02:49:48;12.80;99.90
5899;DHT22;2975;50.956;6.962;2022-07-06T02:52:14;12.80;99.90
5899;DHT22;2975;50.956;6.962;2022-07-06T02:54:39;12.80;99.90
5899;DHT22;2975;50.956;6.962;2022-07-06T02:57:05;12.70;99.90
5899;DHT22;2975;50.956;6.962;2022-07-06T02:59:30;12.70;99.90
5899;DHT22;2975;50.956;6.962;2022-07-06T03:01:56;12.70;99.90
5899;DHT22;2975;50.956;6.962;2022-07-06T03:04:23;12.60;99.90
5899;DHT22;2975;50.956;6.962;2022-07-06T03:06:49;12.60;99.90
5899;DHT22;2975;50.956;6.962;2022-07-06T03:09:14;12.60;99.90
5899;DHT22;2975;50.956;6.962;2022-07-06T03:11:40;12.50;99.90
5899;DHT22;2975;50.956;6.962;2022-07-06T03:14:06;12.50;99.90
5899;DHT22;2975;50.956;6.962;2022-07-06T03:16:32;12.60;99.90
5899;DHT22;2975;50.956;6.962;2022-07-06T03:18:57;12.60;99.90
5899;DHT22;2975;50.956;6.962;2022-07-06T03:21:24;12.50;99.90
5899;DHT22;2975;50.956;6.962;2022-07-06T03:23:50;12.50;99.90
5899;DHT22;2975;50.956;6.962;2022-07-06T03:26:16;12.50;99.90
5899;DHT22;2975;50.956;6.962;2022-07-06T03:28:41;12.50;99.90
5899;DHT22;2975;50.956;6.962;2022-07-06T03:31:07;12.50;99.90
5899;DHT22;2975;50.956;6.962;2022-07-06T03:33:33;12.50;99.90
5899;DHT22;2975;50.956;6.962;2022-07-06T03:35:58;12.50;99.90
5899;DHT22;2975;50.956;6.962;2022-07-06T03:38:24;12.50;99.90
5899;DHT22;2975;50.956;6.962;2022-07-06T03:40:50;12.50;99.90
5899;DHT22;2975;50.956;6.962;2022-07-06T03:43:15;12.50;99.90
5899;DHT22;2975;50.956;6.962;2022-07-06T03:45:41;12.50;99.90
5899;DHT22;2975;50.956;6.962;2022-07-06T03:48:07;12.50;99.90
5899;DHT22;2975;50.956;6.962;2022-07-06T03:50:32;12.50;99.90
5899;DHT22;2975;50.956;6.962;2022-07-06T03:52:58;12.50;99.90
5899;DHT22;2975;50.956;6.962;2022-07-06T03:55:24;12.50;99.90
5899;DHT22;2975;50.956;6.962;2022-07-06T03:57:49;12.50;99.90
5899;DHT22;2975;50.956;6.962;2022-07-06T04:00:15;12.50;99.90
5899;DHT22;2975;50.956;6.962;2022-07-06T04:02:41;12.50;99.90
5899;DHT22;2975;50.956;6.962;2022-07-06T04:05:07;12.60;99.90
5899;DHT22;2975;50.956;6.962;2022-07-06T04:07:33;12.60;99.90
5899;DHT22;2975;50.956;6.962;2022-07-06T04:09:58;12.80;99.90
5899;DHT22;2975;50.956;6.962;2022-07-06T04:12:24;12.80;99.90
5899;DHT22;2975;50.956;6.962;2022-07-06T04:14:50;12.90;99.90
5899;DHT22;2975;50.956;6.962;2022-07-06T04:17:15;12.90;99.90
5899;DHT22;2975;50.956;6.962;2022-07-06T04:19:59;13.10;99.90
5899;DHT22;2975;50.956;6.962;2022-07-06T04:22:25;13.20;99.90
5899;DHT22;2975;50.956;6.962;2022-07-06T04:24:51;13.30;99.90
5899;DHT22;2975;50.956;6.962;2022-07-06T04:27:16;13.30;99.90
5899;DHT22;2975;50.956;6.962;2022-07-06T04:29:42;13.20;99.90
5899;DHT22;2975;50.956;6.962;2022-07-06T04:32:07;13.20;99.90
5899;DHT22;2975;50.956;6.962;2022-07-06T04:34:33;13.30;99.90
5899;DHT22;2975;50.956;6.962;2022-07-06T04:36:59;13.50;99.90
5899;DHT22;2975;50.956;6.962;2022-07-06T04:39:24;13.50;99.90
5899;DHT22;2975;50.956;6.962;2022-07-06T04:41:50;13.40;99.90
5899;DHT22;2975;50.956;6.962;2022-07-06T04:44:15;13.40;99.90
5899;DHT22;2975;50.956;6.962;2022-07-06T04:46:41;13.50;99.90
5899;DHT22;2975;50.956;6.962;2022-07-06T04:49:07;14.10;99.90
5899;DHT22;2975;50.956;6.962;2022-07-06T04:51:33;14.80;99.90
5899;DHT22;2975;50.956;6.962;2022-07-06T04:53:58;15.90;99.10
5899;DHT22;2975;50.956;6.962;2022-07-06T04:56:24;17.10;96.20
5899;DHT22;2975;50.956;6.962;2022-07-06T04:58:50;18.50;93.90
5899;DHT22;2975;50.956;6.962;2022-07-06T05:01:15;19.40;91.90
5899;DHT22;2975;50.956;6.962;2022-07-06T05:03:41;20.30;90.20
5899;DHT22;2975;50.956;6.962;2022-07-06T05:06:07;20.90;87.20
5899;DHT22;2975;50.956;6.962;2022-07-06T05:08:33;21.50;85.60
5899;DHT22;2975;50.956;6.962;2022-07-06T05:11:00;21.80;83.10
5899;DHT22;2975;50.956;6.962;2022-07-06T05:13:25;21.90;82.60
5899;DHT22;2975;50.956;6.962;2022-07-06T05:15:51;22.90;80.80
5899;DHT22;2975;50.956;6.962;2022-07-06T05:18:17;23.20;77.30
5899;DHT22;2975;50.956;6.962;2022-07-06T05:20:42;23.20;78.40
5899;DHT22;2975;50.956;6.962;2022-07-06T05:23:08;22.30;77.30
5899;DHT22;2975;50.956;6.962;2022-07-06T05:25:34;21.10;80.80
5899;DHT22;2975;50.956;6.962;2022-07-06T05:28:01;21.80;80.90
5899;DHT22;2975;50.956;6.962;2022-07-06T05:30:26;21.50;80.80
5899;DHT22;2975;50.956;6.962;2022-07-06T05:32:52;22.10;78.80
5899;DHT22;2975;50.956;6.962;2022-07-06T05:35:18;21.10;79.60
5899;DHT22;2975;50.956;6.962;2022-07-06T05:37:43;19.40;84.50
5899;DHT22;2975;50.956;6.962;2022-07-06T05:40:09;18.50;88.30
5899;DHT22;2975;50.956;6.962;2022-07-06T05:42:35;18.00;90.60
5899;DHT22;2975;50.956;6.962;2022-07-06T05:45:01;17.70;91.60
5899;DHT22;2975;50.956;6.962;2022-07-06T05:47:28;17.50;92.20
5899;DHT22;2975;50.956;6.962;2022-07-06T05:50:13;17.30;92.90
5899;DHT22;2975;50.956;6.962;2022-07-06T05:52:40;17.80;93.50
5899;DHT22;2975;50.956;6.962;2022-07-06T05:55:07;18.40;92.50
5899;DHT22;2975;50.956;6.962;2022-07-06T05:57:32;19.50;91.00
5899;DHT22;2975;50.956;6.962;2022-07-06T05:59:58;20.30;88.50
5899;DHT22;2975;50.956;6.962;2022-07-06T06:02:24;20.50;87.70
5899;DHT22;2975;50.956;6.962;2022-07-06T06:04:49;21.10;86.00
5899;DHT22;2975;50.956;6.962;2022-07-06T06:07:15;22.40;82.50
5899;DHT22;2975;50.956;6.962;2022-07-06T06:09:40;24.00;79.00
5899;DHT22;2975;50.956;6.962;2022-07-06T06:12:06;23.00;77.00
5899;DHT22;2975;50.956;6.962;2022-07-06T06:14:32;24.70;76.50
5899;DHT22;2975;50.956;6.962;2022-07-06T06:16:58;24.50;72.10
5899;DHT22;2975;50.956;6.962;2022-07-06T06:19:25;23.10;74.30
5899;DHT22;2975;50.956;6.962;2022-07-06T06:21:50;22.20;76.70
5899;DHT22;2975;50.956;6.962;2022-07-06T06:24:17;21.70;79.50
5899;DHT22;2975;50.956;6.962;2022-07-06T06:26:43;21.80;78.90
5899;DHT22;2975;50.956;6.962;2022-07-06T06:29:09;21.40;79.10
5899;DHT22;2975;50.956;6.962;2022-07-06T06:31:34;20.20;82.40
5899;DHT22;2975;50.956;6.962;2022-07-06T06:34:00;21.00;82.80
5899;DHT22;2975;50.956;6.962;2022-07-06T06:36:26;22.10;80.60
5899;DHT22;2975;50.956;6.962;2022-07-06T06:38:51;22.30;77.70
5899;DHT22;2975;50.956;6.962;2022-07-06T06:41:17;21.90;77.40
5899;DHT22;2975;50.956;6.962;2022-07-06T06:43:46;21.20;79.40
5899;DHT22;2975;50.956;6.962;2022-07-06T06:46:11;21.30;80.70
5899;DHT22;2975;50.956;6.962;2022-07-06T06:48:37;21.90;79.30
5899;DHT22;2975;50.956;6.962;2022-07-06T06:51:04;21.20;78.80
5899;DHT22;2975;50.956;6.962;2022-07-06T06:53:30;20.50;82.10
5899;DHT22;2975;50.956;6.962;2022-07-06T06:55:55;20.50;82.80
5899;DHT22;2975;50.956;6.962;2022-07-06T06:58:21;20.80;81.60
5899;DHT22;2975;50.956;6.962;2022-07-06T07:00:47;20.30;81.90
5899;DHT22;2975;50.956;6.962;2022-07-06T07:03:13;19.80;84.90
5899;DHT22;2975;50.956;6.962;2022-07-06T07:05:38;19.40;85.10
5899;DHT22;2975;50.956;6.962;2022-07-06T07:08:04;19.20;87.10
5899;DHT22;2975;50.956;6.962;2022-07-06T07:10:30;19.00;87.10
5899;DHT22;2975;50.956;6.962;2022-07-06T07:12:56;18.50;88.60
5899;DHT22;2975;50.956;6.962;2022-07-06T07:15:22;18.40;89.70
5899;DHT22;2975;50.956;6.962;2022-07-06T07:17:47;18.50;90.10
5899;DHT22;2975;50.956;6.962;2022-07-06T07:20:13;18.50;90.40
5899;DHT22;2975;50.956;6.962;2022-07-06T07:22:38;18.70;90.40
5899;DHT22;2975;50.956;6.962;2022-07-06T07:25:05;18.80;89.70
5899;DHT22;2975;50.956;6.962;2022-07-06T07:27:31;19.00;90.20
5899;DHT22;2975;50.956;6.962;2022-07-06T07:29:56;19.00;88.80
5899;DHT22;2975;50.956;6.962;2022-07-06T07:32:22;19.50;87.10
5899;DHT22;2975;50.956;6.962;2022-07-06T07:34:48;19.50;86.00
5899;DHT22;2975;50.956;6.962;2022-07-06T07:37:13;19.40;85.60
5899;DHT22;2975;50.956;6.962;2022-07-06T07:39:39;19.10;87.10
5899;DHT22;2975;50.956;6.962;2022-07-06T07:42:05;19.20;87.00
5899;DHT22;2975;50.956;6.962;2022-07-06T07:44:30;19.20;87.30
5899;DHT22;2975;50.956;6.962;2022-07-06T07:46:56;19.60;86.60
5899;DHT22;2975;50.956;6.962;2022-07-06T07:49:22;19.80;85.10
5899;DHT22;2975;50.956;6.962;2022-07-06T07:51:50;20.10;84.10
5899;DHT22;2975;50.956;6.962;2022-07-06T07:54:16;19.80;84.80
5899;DHT22;2975;50.956;6.962;2022-07-06T07:56:42;19.60;83.80
5899;DHT22;2975;50.956;6.962;2022-07-06T07:59:08;19.40;82.80
5899;DHT22;2975;50.956;6.962;2022-07-06T08:01:34;19.00;85.00
5899;DHT22;2975;50.956;6.962;2022-07-06T08:04:00;18.60;87.60
5899;DHT22;2975;50.956;6.962;2022-07-06T08:06:26;18.50;87.30
5899;DHT22;2975;50.956;6.962;2022-07-06T08:08:51;18.40;87.80
5899;DHT22;2975;50.956;6.962;2022-07-06T08:11:17;18.40;87.80
5899;DHT22;2975;50.956;6.962;2022-07-06T08:13:43;18.60;88.10
5899;DHT22;2975;50.956;6.962;2022-07-06T08:16:08;18.50;88.70
5899;DHT22;2975;50.956;6.962;2022-07-06T08:18:36;18.70;88.80
5899;DHT22;2975;50.956;6.962;2022-07-06T08:21:02;19.20;86.60
5899;DHT22;2975;50.956;6.962;2022-07-06T08:23:28;19.30;86.10
5899;DHT22;2975;50.956;6.962;2022-07-06T08:25:54;19.80;85.90
5899;DHT22;2975;50.956;6.962;2022-07-06T08:28:19;19.60;85.30
5899;DHT22;2975;50.956;6.962;2022-07-06T08:30:45;19.80;86.00
5899;DHT22;2975;50.956;6.962;2022-07-06T08:33:11;20.00;83.70
5899;DHT22;2975;50.956;6.962;2022-07-06T08:35:36;20.00;82.90
5899;DHT22;2975;50.956;6.962;2022-07-06T08:38:02;20.20;82.20
5899;DHT22;2975;50.956;6.962;2022-07-06T08:40:34;20.20;81.40
5899;DHT22;2975;50.956;6.962;2022-07-06T08:43:01;20.10;81.10
5899;DHT22;2975;50.956;6.962;2022-07-06T08:45:27;20.30;81.60
5899;DHT22;2975;50.956;6.962;2022-07-06T08:47:54;20.30;82.00
5899;DHT22;2975;50.956;6.962;2022-07-06T08:50:20;20.10;80.90
5899;DHT22;2975;50.956;6.962;2022-07-06T08:52:50;20.20;80.20
5899;DHT22;2975;50.956;6.962;2022-07-06T08:55:17;19.80;78.20
5899;DHT22;2975;50.956;6.962;2022-07-06T08:57:46;19.60;79.40
5899;DHT22;2975;50.956;6.962;2022-07-06T09:00:12;19.80;80.60
5899;DHT22;2975;50.956;6.962;2022-07-06T09:02:40;20.00;80.30
5899;DHT22;2975;50.956;6.962;2022-07-06T09:05:06;20.50;79.80
5899;DHT22;2975;50.956;6.962;2022-07-06T09:07:34;20.60;77.90
5899;DHT22;2975;50.956;6.962;2022-07-06T09:10:00;20.90;77.00
5899;DHT22;2975;50.956;6.962;2022-07-06T09:12:27;20.40;77.90
5899;DHT22;2975;50.956;6.962;2022-07-06T09:14:57;20.20;78.00
5899;DHT22;2975;50.956;6.962;2022-07-06T09:17:28;20.30;78.50
5899;DHT22;2975;50.956;6.962;2022-07-06T09:19:54;20.40;78.10
5899;DHT22;2975;50.956;6.962;2022-07-06T09:22:32;20.30;77.70
5899;DHT22;2975;50.956;6.962;2022-07-06T09:27:44;19.90;78.70
5899;DHT22;2975;50.956;6.962;2022-07-06T09:30:14;19.90;78.80
5899;DHT22;2975;50.956;6.962;2022-07-06T09:32:41;19.70;78.60
5899;DHT22;2975;50.956;6.962;2022-07-06T09:35:08;19.60;79.60
5899;DHT22;2975;50.956;6.962;2022-07-06T09:37:44;19.60;79.10
5899;DHT22;2975;50.956;6.962;2022-07-06T09:40:17;19.60;78.30
5899;DHT22;2975;50.956;6.962;2022-07-06T09:42:43;19.80;78.50
5899;DHT22;2975;50.956;6.962;2022-07-06T09:45:09;20.20;77.60
5899;DHT22;2975;50.956;6.962;2022-07-06T09:47:35;20.50;75.70
5899;DHT22;2975;50.956;6.962;2022-07-06T09:50:05;20.60;74.80
5899;DHT22;2975;50.956;6.962;2022-07-06T09:52:34;20.40;73.40
5899;DHT22;2975;50.956;6.962;2022-07-06T09:55:00;20.40;73.50
5899;DHT22;2975;50.956;6.962;2022-07-06T09:57:25;20.90;73.90
5899;DHT22;2975;50.956;6.962;2022-07-06T09:59:51;20.90;71.80
5899;DHT22;2975;50.956;6.962;2022-07-06T10:02:20;20.90;71.50
5899;DHT22;2975;50.956;6.962;2022-07-06T10:04:48;20.80;72.80
5899;DHT22;2975;50.956;6.962;2022-07-06T10:07:14;20.70;70.90
5899;DHT22;2975;50.956;6.962;2022-07-06T10:09:41;20.70;70.80
5899;DHT22;2975;50.956;6.962;2022-07-06T10:12:09;20.30;72.60
5899;DHT22;2975;50.956;6.962;2022-07-06T10:14:37;20.30;72.30
5899;DHT22;2975;50.956;6.962;2022-07-06T10:17:06;20.50;74.10
5899;DHT22;2975;50.956;6.962;2022-07-06T10:19:32;21.40;74.60
5899;DHT22;2975;50.956;6.962;2022-07-06T10:22:00;22.00;72.70
5899;DHT22;2975;50.956;6.962;2022-07-06T10:24:28;22.50;70.50
5899;DHT22;2975;50.956;6.962;2022-07-06T10:26:55;22.30;70.60
5899;DHT22;2975;50.956;6.962;2022-07-06T10:29:21;22.40;69.80
5899;DHT22;2975;50.956;6.962;2022-07-06T10:31:48;22.30;69.00
5899;DHT22;2975;50.956;6.962;2022-07-06T10:34:17;22.10;68.40
5899;DHT22;2975;50.956;6.962;2022-07-06T10:36:48;21.70;68.70
5899;DHT22;2975;50.956;6.962;2022-07-06T10:39:13;21.40;69.10
5899;DHT22;2975;50.956;6.962;2022-07-06T10:41:58;21.20;70.60
5899;DHT22;2975;50.956;6.962;2022-07-06T10:44:25;21.70;69.90
5899;DHT22;2975;50.956;6.962;2022-07-06T10:46:56;21.90;69.40
5899;DHT22;2975;50.956;6.962;2022-07-06T10:49:24;21.80;68.80
5899;DHT22;2975;50.956;6.962;2022-07-06T10:51:50;21.30;69.00
5899;DHT22;2975;50.956;6.962;2022-07-06T10:54:18;21.40;69.50
5899;DHT22;2975;50.956;6.962;2022-07-06T10:56:51;21.90;67.90
5899;DHT22;2975;50.956;6.962;2022-07-06T10:59:20;22.10;66.50
5899;DHT22;2975;50.956;6.962;2022-07-06T11:02:18;22.10;66.30
5899;DHT22;2975;50.956;6.962;2022-07-06T11:04:48;21.50;68.00
5899;DHT22;2975;50.956;6.962;2022-07-06T11:07:15;21.40;67.40
5899;DHT22;2975;50.956;6.962;2022-07-06T11:09:58;20.80;67.80
5899;DHT22;2975;50.956;6.962;2022-07-06T11:12:24;20.60;68.20
5899;DHT22;2975;50.956;6.962;2022-07-06T11:14:51;20.80;67.70
5899;DHT22;2975;50.956;6.962;2022-07-06T11:17:18;20.90;68.10
5899;DHT22;2975;50.956;6.962;2022-07-06T11:19:58;20.70;68.90
5899;DHT22;2975;50.956;6.962;2022-07-06T11:22:36;21.00;67.50
5899;DHT22;2975;50.956;6.962;2022-07-06T11:25:03;21.30;67.10
5899;DHT22;2975;50.956;6.962;2022-07-06T11:27:29;21.50;66.30
5899;DHT22;2975;50.956;6.962;2022-07-06T11:29:55;21.40;66.20
5899;DHT22;2975;50.956;6.962;2022-07-06T11:32:25;21.00;66.70
5899;DHT22;2975;50.956;6.962;2022-07-06T11:34:51;21.10;67.60
5899;DHT22;2975;50.956;6.962;2022-07-06T11:37:17;21.50;65.70
5899;DHT22;2975;50.956;6.962;2022-07-06T11:39:45;21.70;65.90
5899;DHT22;2975;50.956;6.962;2022-07-06T11:42:16;21.80;64.80
5899;DHT22;2975;50.956;6.962;2022-07-06T11:44:43;21.80;65.20
5899;DHT22;2975;50.956;6.962;2022-07-06T11:47:10;22.00;65.10
5899;DHT22;2975;50.956;6.962;2022-07-06T11:49:37;22.10;63.60
5899;DHT22;2975;50.956;6.962;2022-07-06T11:52:08;22.20;64.00
5899;DHT22;2975;50.956;6.962;2022-07-06T11:54:34;22.10;62.10
5899;DHT22;2975;50.956;6.962;2022-07-06T11:57:00;22.10;63.00
5899;DHT22;2975;50.956;6.962;2022-07-06T11:59:28;21.90;63.00
5899;DHT22;2975;50.956;6.962;2022-07-06T12:04:31;22.30;65.70
5899;DHT22;2975;50.956;6.962;2022-07-06T12:07:05;22.20;66.60
5899;DHT22;2975;50.956;6.962;2022-07-06T12:09:33;21.60;67.50
5899;DHT22;2975;50.956;6.962;2022-07-06T12:11:59;21.90;68.00
5899;DHT22;2975;50.956;6.962;2022-07-06T12:14:28;22.10;68.10
5899;DHT22;2975;50.956;6.962;2022-07-06T12:16:55;22.40;66.60
5899;DHT22;2975;50.956;6.962;2022-07-06T12:19:24;22.80;67.10
5899;DHT22;2975;50.956;6.962;2022-07-06T12:21:50;23.00;65.30
5899;DHT22;2975;50.956;6.962;2022-07-06T12:24:24;22.80;64.30
5899;DHT22;2975;50.956;6.962;2022-07-06T12:26:52;23.30;64.50
5899;DHT22;2975;50.956;6.962;2022-07-06T12:29:18;23.30;63.70
5899;DHT22;2975;50.956;6.962;2022-07-06T12:36:48;22.80;63.50
5899;DHT22;2975;50.956;6.962;2022-07-06T12:39:16;23.00;62.10
5899;DHT22;2975;50.956;6.962;2022-07-06T12:41:56;23.00;63.50
5899;DHT22;2975;50.956;6.962;2022-07-06T12:44:25;23.20;62.40
5899;DHT22;2975;50.956;6.962;2022-07-06T12:47:02;23.10;62.60
5899;DHT22;2975;50.956;6.962;2022-07-06T12:49:28;22.80;62.50
5899;DHT22;2975;50.956;6.962;2022-07-06T12:52:15;22.60;62.60
5899;DHT22;2975;50.956;6.962;2022-07-06T12:54:48;23.00;62.70
5899;DHT22;2975;50.956;6.962;2022-07-06T12:59:46;23.10;62.40
5899;DHT22;2975;50.956;6.962;2022-07-06T13:02:23;22.60;62.50
5899;DHT22;2975;50.956;6.962;2022-07-06T13:05:06;22.50;63.20
5899;DHT22;2975;50.956;6.962;2022-07-06T13:07:33;22.40;63.10
5899;DHT22;2975;50.956;6.962;2022-07-06T13:10:08;22.60;62.60
5899;DHT22;2975;50.956;6.962;2022-07-06T13:12:34;22.70;61.50
5899;DHT22;2975;50.956;6.962;2022-07-06T13:15:00;23.10;60.90
5899;DHT22;2975;50.956;6.962;2022-07-06T13:17:26;23.80;59.70
5899;DHT22;2975;50.956;6.962;2022-07-06T13:19:52;24.00;59.70
5899;DHT22;2975;50.956;6.962;2022-07-06T13:22:17;24.60;57.80
5899;DHT22;2975;50.956;6.962;2022-07-06T13:24:43;24.30;58.30
5899;DHT22;2975;50.956;6.962;2022-07-06T13:27:09;23.90;59.30
5899;DHT22;2975;50.956;6.962;2022-07-06T13:29:35;23.50;59.80
5899;DHT22;2975;50.956;6.962;2022-07-06T13:32:02;23.70;60.00
5899;DHT22;2975;50.956;6.962;2022-07-06T13:34:27;24.20;59.40
5899;DHT22;2975;50.956;6.962;2022-07-06T13:36:53;24.10;58.60
5899;DHT22;2975;50.956;6.962;2022-07-06T13:39:19;23.60;60.10
5899;DHT22;2975;50.956;6.962;2022-07-06T13:41:45;23.60;60.70
5899;DHT22;2975;50.956;6.962;2022-07-06T13:44:11;23.40;60.30
5899;DHT22;2975;50.956;6.962;2022-07-06T13:46:38;23.10;60.60
5899;DHT22;2975;50.956;6.962;2022-07-06T13:49:08;22.80;61.80
5899;DHT22;2975;50.956;6.962;2022-07-06T13:51:33;22.70;61.80
5899;DHT22;2975;50.956;6.962;2022-07-06T13:53:59;22.70;61.80
5899;DHT22;2975;50.956;6.962;2022-07-06T13:56:26;22.50;62.10
5899;DHT22;2975;50.956;6.962;2022-07-06T13:58:53;22.60;61.70
5899;DHT22;2975;50.956;6.962;2022-07-06T14:01:18;22.70;62.10
5899;DHT22;2975;50.956;6.962;2022-07-06T14:03:44;22.90;62.20
5899;DHT22;2975;50.956;6.962;2022-07-06T14:06:10;22.80;61.90
5899;DHT22;2975;50.956;6.962;2022-07-06T14:08:38;22.50;63.40
5899;DHT22;2975;50.956;6.962;2022-07-06T14:11:04;22.70;62.90
5899;DHT22;2975;50.956;6.962;2022-07-06T14:13:31;23.00;63.80
5899;DHT22;2975;50.956;6.962;2022-07-06T14:15:57;23.30;63.80
5899;DHT22;2975;50.956;6.962;2022-07-06T14:18:23;23.30;61.90
5899;DHT22;2975;50.956;6.962;2022-07-06T14:20:50;22.90;62.00
5899;DHT22;2975;50.956;6.962;2022-07-06T14:23:17;22.60;63.00
5899;DHT22;2975;50.956;6.962;2022-07-06T14:25:43;22.50;63.60
5899;DHT22;2975;50.956;6.962;2022-07-06T14:28:10;22.50;62.90
5899;DHT22;2975;50.956;6.962;2022-07-06T14:30:39;22.70;63.20
5899;DHT22;2975;50.956;6.962;2022-07-06T14:33:06;22.90;62.70
5899;DHT22;2975;50.956;6.962;2022-07-06T14:35:37;23.10;62.20
5899;DHT22;2975;50.956;6.962;2022-07-06T14:38:04;22.80;61.60
5899;DHT22;2975;50.956;6.962;2022-07-06T14:40:31;22.70;61.50
5899;DHT22;2975;50.956;6.962;2022-07-06T14:42:57;22.50;61.10
5899;DHT22;2975;50.956;6.962;2022-07-06T14:45:23;22.20;61.30
5899;DHT22;2975;50.956;6.962;2022-07-06T14:47:49;21.90;61.70
5899;DHT22;2975;50.956;6.962;2022-07-06T14:50:14;21.80;63.00
5899;DHT22;2975;50.956;6.962;2022-07-06T14:52:40;21.80;63.60
5899;DHT22;2975;50.956;6.962;2022-07-06T14:55:06;21.90;62.90
5899;DHT22;2975;50.956;6.962;2022-07-06T14:57:32;21.80;62.50
5899;DHT22;2975;50.956;6.962;2022-07-06T14:59:57;21.90;62.70
5899;DHT22;2975;50.956;6.962;2022-07-06T15:02:23;21.80;62.10
5899;DHT22;2975;50.956;6.962;2022-07-06T15:04:49;21.60;62.40
5899;DHT22;2975;50.956;6.962;2022-07-06T15:07:14;21.90;62.60
5899;DHT22;2975;50.956;6.962;2022-07-06T15:09:40;22.20;62.20
5899;DHT22;2975;50.956;6.962;2022-07-06T15:12:06;22.20;61.80
5899;DHT22;2975;50.956;6.962;2022-07-06T15:14:32;22.20;62.00
5899;DHT22;2975;50.956;6.962;2022-07-06T15:16:58;22.00;63.20
5899;DHT22;2975;50.956;6.962;2022-07-06T15:19:24;22.10;62.20
5899;DHT22;2975;50.956;6.962;2022-07-06T15:21:50;22.10;61.90
5899;DHT22;2975;50.956;6.962;2022-07-06T15:24:16;22.30;62.10
5899;DHT22;2975;50.956;6.962;2022-07-06T15:26:42;22.70;61.70
5899;DHT22;2975;50.956;6.962;2022-07-06T15:29:08;22.70;61.80
5899;DHT22;2975;50.956;6.962;2022-07-06T15:31:33;22.60;61.90
5899;DHT22;2975;50.956;6.962;2022-07-06T15:33:59;22.50;62.20
5899;DHT22;2975;50.956;6.962;2022-07-06T15:36:25;22.50;62.50
5899;DHT22;2975;50.956;6.962;2022-07-06T15:38:50;22.70;62.20
5899;DHT22;2975;50.956;6.962;2022-07-06T15:41:16;22.40;61.40
5899;DHT22;2975;50.956;6.962;2022-07-06T15:43:42;22.10;62.20
5899;DHT22;2975;50.956;6.962;2022-07-06T15:46:08;21.90;63.30
5899;DHT22;2975;50.956;6.962;2022-07-06T15:48:33;21.60;63.40
5899;DHT22;2975;50.956;6.962;2022-07-06T15:51:00;21.40;64.20
5899;DHT22;2975;50.956;6.962;2022-07-06T15:53:25;21.40;63.50
5899;DHT22;2975;50.956;6.962;2022-07-06T15:55:51;21.50;63.80
5899;DHT22;2975;50.956;6.962;2022-07-06T15:58:17;21.60;63.10
5899;DHT22;2975;50.956;6.962;2022-07-06T16:00:43;21.60;63.50
5899;DHT22;2975;50.956;6.962;2022-07-06T16:03:09;21.80;63.20
5899;DHT22;2975;50.956;6.962;2022-07-06T16:05:35;21.90;62.90
5899;DHT22;2975;50.956;6.962;2022-07-06T16:08:01;21.90;62.50
5899;DHT22;2975;50.956;6.962;2022-07-06T16:10:27;21.90;62.90
5899;DHT22;2975;50.956;6.962;2022-07-06T16:12:55;22.10;62.30
5899;DHT22;2975;50.956;6.962;2022-07-06T16:15:22;22.10;62.00